Alkali Lake, Canada
Current Conditions -  °F | °C
As of 11:00 AM on Thursday 30 Oct 2014 (Local Time) from CYWL Reporting Station
Broken Clouds Broken Clouds  
Wind Chill: 39°   Ceiling: 10000
Heat Index: 46°   Visibility: 15mi
Dew Point: 36°   Wind: 22mph
Humidity: 66%   Direction: 110°ESE
Pressure: 29.84"   Gusts: 31mph
Location:  51.77°N, 122.3°W
Report Text: CYWL 301800Z 11019G27KT 15SM SCT040 BKN100 08/02 A2984 RMK CU3AC4 SLP123
Loading
Personal Weather Stations






























Interactive Weather Map
Tropical Storm Tracking
New forecast layout! Learn more

10-Day Weather Forecast

Advertisements
Track Severe Weather on mobile